Trigg Furnace, Kentucky
Current Conditions -  °F | °C
As of 7:58 AM on Thursday 29 Jan 2015 (Local Time) from KHOP Reporting Station
Haze Haze  
Wind Chill: 53°   Ceiling: Unl
Heat Index: 53°   Visibility: 6mi
Dew Point: 37°   Wind: 21mph
Humidity: 54%   Direction: 210°SSW
Pressure: 29.96"   Gusts: 29mph
Location:  36.8031°N, 87.8159°W
Report Text: KHOP 291358Z AUTO 21018G25KT 6SM HZ CLR 12/03 A2996 RMK AO2 SLP148 T01190029
Loading
Personal Weather Stations






























Interactive Weather Map New forecast layout! Learn more

10-Day Weather Forecast

Advertisements
Track Severe Weather on mobile